sensor_id;sensor_type;location;lat;lon;timestamp;temperature;humidity
19864;DHT22;10094;48.820;9.226;2023-06-01T00:02:59;15.70;99.90
19864;DHT22;10094;48.820;9.226;2023-06-01T00:09:42;15.70;99.90
19864;DHT22;10094;48.820;9.226;2023-06-01T00:16:24;15.40;99.90
19864;DHT22;10094;48.820;9.226;2023-06-01T00:23:08;15.30;99.90
19864;DHT22;10094;48.820;9.226;2023-06-01T00:29:51;15.40;99.90
19864;DHT22;10094;48.820;9.226;2023-06-01T00:36:33;15.50;99.90
19864;DHT22;10094;48.820;9.226;2023-06-01T00:43:16;15.00;99.90
19864;DHT22;10094;48.820;9.226;2023-06-01T00:49:59;15.00;99.90
19864;DHT22;10094;48.820;9.226;2023-06-01T00:56:42;15.00;99.90
19864;DHT22;10094;48.820;9.226;2023-06-01T01:03:24;15.00;99.90
19864;DHT22;10094;48.820;9.226;2023-06-01T01:10:32;15.00;99.90
19864;DHT22;10094;48.820;9.226;2023-06-01T01:17:38;14.70;99.90
19864;DHT22;10094;48.820;9.226;2023-06-01T01:31:17;14.70;99.90
19864;DHT22;10094;48.820;9.226;2023-06-01T01:37:59;14.60;99.90
19864;DHT22;10094;48.820;9.226;2023-06-01T01:44:42;14.50;99.90
19864;DHT22;10094;48.820;9.226;2023-06-01T01:51:40;14.40;99.90
19864;DHT22;10094;48.820;9.226;2023-06-01T01:58:25;14.40;99.90
19864;DHT22;10094;48.820;9.226;2023-06-01T02:05:08;14.20;99.90
19864;DHT22;10094;48.820;9.226;2023-06-01T02:11:51;14.10;99.90
19864;DHT22;10094;48.820;9.226;2023-06-01T02:18:34;13.90;99.90
19864;DHT22;10094;48.820;9.226;2023-06-01T02:25:21;13.70;99.90
19864;DHT22;10094;48.820;9.226;2023-06-01T02:32:03;13.40;99.90
19864;DHT22;10094;48.820;9.226;2023-06-01T02:38:46;13.50;99.90
19864;DHT22;10094;48.820;9.226;2023-06-01T02:45:29;13.60;99.90
19864;DHT22;10094;48.820;9.226;2023-06-01T02:52:12;13.60;99.90
19864;DHT22;10094;48.820;9.226;2023-06-01T02:58:54;13.40;99.90
19864;DHT22;10094;48.820;9.226;2023-06-01T03:05:46;13.30;99.90
19864;DHT22;10094;48.820;9.226;2023-06-01T03:13:00;13.20;99.90
19864;DHT22;10094;48.820;9.226;2023-06-01T03:19:42;13.30;99.90
19864;DHT22;10094;48.820;9.226;2023-06-01T03:26:32;13.10;99.90
19864;DHT22;10094;48.820;9.226;2023-06-01T03:33:14;13.10;99.90
19864;DHT22;10094;48.820;9.226;2023-06-01T03:39:57;13.20;99.90
19864;DHT22;10094;48.820;9.226;2023-06-01T03:46:44;13.20;99.90
19864;DHT22;10094;48.820;9.226;2023-06-01T03:53:30;13.20;99.90
19864;DHT22;10094;48.820;9.226;2023-06-01T04:08:44;13.30;99.90
19864;DHT22;10094;48.820;9.226;2023-06-01T04:15:37;13.20;99.90
19864;DHT22;10094;48.820;9.226;2023-06-01T04:22:20;13.50;99.90
19864;DHT22;10094;48.820;9.226;2023-06-01T04:29:02;13.70;99.90
19864;DHT22;10094;48.820;9.226;2023-06-01T04:35:46;13.80;99.90
19864;DHT22;10094;48.820;9.226;2023-06-01T04:42:29;14.00;99.90
19864;DHT22;10094;48.820;9.226;2023-06-01T04:49:12;14.20;99.90
19864;DHT22;10094;48.820;9.226;2023-06-01T04:55:56;14.30;99.90
19864;DHT22;10094;48.820;9.226;2023-06-01T05:02:41;15.30;99.90
19864;DHT22;10094;48.820;9.226;2023-06-01T05:09:26;19.30;99.90
19864;DHT22;10094;48.820;9.226;2023-06-01T05:16:09;22.10;95.90
19864;DHT22;10094;48.820;9.226;2023-06-01T05:22:51;23.90;91.30
19864;DHT22;10094;48.820;9.226;2023-06-01T05:29:34;25.80;87.00
19864;DHT22;10094;48.820;9.226;2023-06-01T05:36:17;26.60;82.90
19864;DHT22;10094;48.820;9.226;2023-06-01T05:42:59;26.70;80.60
19864;DHT22;10094;48.820;9.226;2023-06-01T05:49:42;27.40;78.40
19864;DHT22;10094;48.820;9.226;2023-06-01T05:56:25;27.50;75.40
19864;DHT22;10094;48.820;9.226;2023-06-01T06:03:08;28.90;74.10
19864;DHT22;10094;48.820;9.226;2023-06-01T06:09:50;29.20;71.50
19864;DHT22;10094;48.820;9.226;2023-06-01T06:16:33;29.60;70.30
19864;DHT22;10094;48.820;9.226;2023-06-01T06:23:15;29.40;69.60
19864;DHT22;10094;48.820;9.226;2023-06-01T06:29:58;31.40;67.40
19864;DHT22;10094;48.820;9.226;2023-06-01T06:36:40;31.70;65.60
19864;DHT22;10094;48.820;9.226;2023-06-01T06:43:22;29.80;64.60
19864;DHT22;10094;48.820;9.226;2023-06-01T06:50:05;31.20;64.80
19864;DHT22;10094;48.820;9.226;2023-06-01T06:56:49;32.30;63.90
19864;DHT22;10094;48.820;9.226;2023-06-01T07:03:32;32.00;63.80
19864;DHT22;10094;48.820;9.226;2023-06-01T07:10:15;31.80;63.00
19864;DHT22;10094;48.820;9.226;2023-06-01T07:16:57;32.70;62.20
19864;DHT22;10094;48.820;9.226;2023-06-01T07:23:41;31.90;61.80
19864;DHT22;10094;48.820;9.226;2023-06-01T07:30:24;34.40;60.70
19864;DHT22;10094;48.820;9.226;2023-06-01T07:37:07;33.40;59.80
19864;DHT22;10094;48.820;9.226;2023-06-01T07:43:59;34.20;59.00
19864;DHT22;10094;48.820;9.226;2023-06-01T07:50:41;35.00;58.90
19864;DHT22;10094;48.820;9.226;2023-06-01T07:57:24;35.70;55.50
19864;DHT22;10094;48.820;9.226;2023-06-01T08:04:07;35.10;56.80
19864;DHT22;10094;48.820;9.226;2023-06-01T08:10:51;34.20;55.80
19864;DHT22;10094;48.820;9.226;2023-06-01T08:17:35;35.20;55.50
19864;DHT22;10094;48.820;9.226;2023-06-01T08:24:19;35.50;55.20
19864;DHT22;10094;48.820;9.226;2023-06-01T08:31:05;35.80;55.50
19864;DHT22;10094;48.820;9.226;2023-06-01T08:37:49;36.50;54.30
19864;DHT22;10094;48.820;9.226;2023-06-01T08:44:41;35.60;54.20
19864;DHT22;10094;48.820;9.226;2023-06-01T08:51:23;35.90;54.20
19864;DHT22;10094;48.820;9.226;2023-06-01T08:58:07;36.70;53.10
19864;DHT22;10094;48.820;9.226;2023-06-01T09:04:49;38.50;52.00
19864;DHT22;10094;48.820;9.226;2023-06-01T09:11:32;37.20;51.40
19864;DHT22;10094;48.820;9.226;2023-06-01T09:18:15;36.80;51.00
19864;DHT22;10094;48.820;9.226;2023-06-01T09:24:59;37.10;51.30
19864;DHT22;10094;48.820;9.226;2023-06-01T09:31:43;36.40;51.70
19864;DHT22;10094;48.820;9.226;2023-06-01T09:38:29;37.90;52.20
19864;DHT22;10094;48.820;9.226;2023-06-01T09:45:20;37.80;51.20
19864;DHT22;10094;48.820;9.226;2023-06-01T09:58:56;38.20;51.00
19864;DHT22;10094;48.820;9.226;2023-06-01T10:05:39;37.60;49.40
19864;DHT22;10094;48.820;9.226;2023-06-01T10:12:22;37.60;50.70
19864;DHT22;10094;48.820;9.226;2023-06-01T10:19:09;34.20;51.80
19864;DHT22;10094;48.820;9.226;2023-06-01T10:25:52;32.50;53.10
19864;DHT22;10094;48.820;9.226;2023-06-01T10:32:41;35.50;52.10
19864;DHT22;10094;48.820;9.226;2023-06-01T10:39:32;34.80;52.20
19864;DHT22;10094;48.820;9.226;2023-06-01T10:46:39;33.00;50.60
19864;DHT22;10094;48.820;9.226;2023-06-01T10:53:30;33.00;51.30
19864;DHT22;10094;48.820;9.226;2023-06-01T11:07:34;30.90;54.50
19864;DHT22;10094;48.820;9.226;2023-06-01T11:14:18;30.00;55.10
19864;DHT22;10094;48.820;9.226;2023-06-01T11:21:02;29.40;56.00
19864;DHT22;10094;48.820;9.226;2023-06-01T11:27:45;29.00;57.10
19864;DHT22;10094;48.820;9.226;2023-06-01T11:34:35;28.90;57.50
19864;DHT22;10094;48.820;9.226;2023-06-01T11:41:20;28.40;56.60
19864;DHT22;10094;48.820;9.226;2023-06-01T11:48:11;28.50;57.30
19864;DHT22;10094;48.820;9.226;2023-06-01T11:55:02;28.50;57.70
19864;DHT22;10094;48.820;9.226;2023-06-01T12:01:46;28.60;57.40
19864;DHT22;10094;48.820;9.226;2023-06-01T12:08:30;28.20;57.90
19864;DHT22;10094;48.820;9.226;2023-06-01T12:15:14;28.40;57.80
19864;DHT22;10094;48.820;9.226;2023-06-01T12:21:58;27.90;57.40
19864;DHT22;10094;48.820;9.226;2023-06-01T12:28:52;28.30;58.10
19864;DHT22;10094;48.820;9.226;2023-06-01T12:35:48;28.90;56.80
19864;DHT22;10094;48.820;9.226;2023-06-01T12:42:38;28.00;56.20
19864;DHT22;10094;48.820;9.226;2023-06-01T12:49:21;28.40;55.50
19864;DHT22;10094;48.820;9.226;2023-06-01T12:56:03;28.60;55.90
19864;DHT22;10094;48.820;9.226;2023-06-01T13:02:46;28.50;57.70
19864;DHT22;10094;48.820;9.226;2023-06-01T13:09:32;28.30;59.10
19864;DHT22;10094;48.820;9.226;2023-06-01T13:16:15;28.70;59.10
19864;DHT22;10094;48.820;9.226;2023-06-01T13:22:58;28.50;58.90
19864;DHT22;10094;48.820;9.226;2023-06-01T13:29:40;28.50;58.50
19864;DHT22;10094;48.820;9.226;2023-06-01T13:36:23;28.90;57.50
19864;DHT22;10094;48.820;9.226;2023-06-01T13:43:06;28.00;56.90
19864;DHT22;10094;48.820;9.226;2023-06-01T13:49:48;28.00;57.70
19864;DHT22;10094;48.820;9.226;2023-06-01T13:56:30;28.20;56.70
19864;DHT22;10094;48.820;9.226;2023-06-01T14:03:14;28.50;56.80
19864;DHT22;10094;48.820;9.226;2023-06-01T14:09:59;29.10;56.20
19864;DHT22;10094;48.820;9.226;2023-06-01T14:16:42;28.60;55.80
19864;DHT22;10094;48.820;9.226;2023-06-01T14:23:27;28.80;56.80
19864;DHT22;10094;48.820;9.226;2023-06-01T14:30:11;28.80;56.20
19864;DHT22;10094;48.820;9.226;2023-06-01T14:36:54;28.70;56.60
19864;DHT22;10094;48.820;9.226;2023-06-01T14:43:37;29.10;56.60
19864;DHT22;10094;48.820;9.226;2023-06-01T14:50:21;29.20;56.10
19864;DHT22;10094;48.820;9.226;2023-06-01T14:57:03;29.30;55.90
19864;DHT22;10094;48.820;9.226;2023-06-01T15:03:46;29.20;55.80
19864;DHT22;10094;48.820;9.226;2023-06-01T15:10:29;29.50;55.50
19864;DHT22;10094;48.820;9.226;2023-06-01T15:17:11;29.10;54.80
19864;DHT22;10094;48.820;9.226;2023-06-01T15:23:54;29.20;54.60
19864;DHT22;10094;48.820;9.226;2023-06-01T15:30:36;29.00;55.10
19864;DHT22;10094;48.820;9.226;2023-06-01T15:37:19;29.10;55.00
19864;DHT22;10094;48.820;9.226;2023-06-01T15:44:05;29.00;54.40
19864;DHT22;10094;48.820;9.226;2023-06-01T15:50:47;29.20;54.70
19864;DHT22;10094;48.820;9.226;2023-06-01T15:57:30;28.90;54.20
19864;DHT22;10094;48.820;9.226;2023-06-01T16:04:13;29.20;54.00
19864;DHT22;10094;48.820;9.226;2023-06-01T16:10:58;29.00;53.30
19864;DHT22;10094;48.820;9.226;2023-06-01T16:17:40;29.10;53.50
19864;DHT22;10094;48.820;9.226;2023-06-01T16:24:23;29.00;53.10
19864;DHT22;10094;48.820;9.226;2023-06-01T16:31:06;28.60;51.90
19864;DHT22;10094;48.820;9.226;2023-06-01T16:37:49;28.10;52.00
19864;DHT22;10094;48.820;9.226;2023-06-01T16:44:34;28.40;51.50
19864;DHT22;10094;48.820;9.226;2023-06-01T16:51:16;28.40;51.50
19864;DHT22;10094;48.820;9.226;2023-06-01T16:58:01;28.20;50.90
19864;DHT22;10094;48.820;9.226;2023-06-01T17:04:43;28.30;50.50
19864;DHT22;10094;48.820;9.226;2023-06-01T17:11:26;28.10;50.00
19864;DHT22;10094;48.820;9.226;2023-06-01T17:18:08;28.00;50.60
19864;DHT22;10094;48.820;9.226;2023-06-01T17:24:53;28.00;51.40
19864;DHT22;10094;48.820;9.226;2023-06-01T17:31:35;28.10;51.30
19864;DHT22;10094;48.820;9.226;2023-06-01T17:38:18;28.20;52.00
19864;DHT22;10094;48.820;9.226;2023-06-01T17:45:00;28.00;52.60
19864;DHT22;10094;48.820;9.226;2023-06-01T17:51:43;28.00;53.40
19864;DHT22;10094;48.820;9.226;2023-06-01T17:58:25;27.80;54.30
19864;DHT22;10094;48.820;9.226;2023-06-01T18:05:08;27.60;54.30
19864;DHT22;10094;48.820;9.226;2023-06-01T18:11:50;27.30;55.10
19864;DHT22;10094;48.820;9.226;2023-06-01T18:18:33;27.30;55.10
19864;DHT22;10094;48.820;9.226;2023-06-01T18:25:15;27.00;55.60
19864;DHT22;10094;48.820;9.226;2023-06-01T18:31:58;26.80;57.40
19864;DHT22;10094;48.820;9.226;2023-06-01T18:38:40;26.70;59.60
19864;DHT22;10094;48.820;9.226;2023-06-01T18:45:23;26.40;60.30
19864;DHT22;10094;48.820;9.226;2023-06-01T18:52:06;26.10;60.40
19864;DHT22;10094;48.820;9.226;2023-06-01T18:58:48;25.80;61.30
19864;DHT22;10094;48.820;9.226;2023-06-01T19:05:32;25.50;62.40
19864;DHT22;10094;48.820;9.226;2023-06-01T19:12:19;25.20;62.70
19864;DHT22;10094;48.820;9.226;2023-06-01T19:19:01;25.00;64.50
19864;DHT22;10094;48.820;9.226;2023-06-01T19:25:45;24.20;68.30
19864;DHT22;10094;48.820;9.226;2023-06-01T19:32:28;24.10;68.30
19864;DHT22;10094;48.820;9.226;2023-06-01T19:39:22;23.90;66.90
19864;DHT22;10094;48.820;9.226;2023-06-01T19:46:20;23.60;70.50
19864;DHT22;10094;48.820;9.226;2023-06-01T20:01:38;23.40;74.00
19864;DHT22;10094;48.820;9.226;2023-06-01T20:08:22;23.00;77.70
19864;DHT22;10094;48.820;9.226;2023-06-01T20:15:05;22.80;75.50
19864;DHT22;10094;48.820;9.226;2023-06-01T20:21:49;22.70;76.10
19864;DHT22;10094;48.820;9.226;2023-06-01T20:28:48;22.60;80.00
19864;DHT22;10094;48.820;9.226;2023-06-01T20:35:31;22.50;85.30
19864;DHT22;10094;48.820;9.226;2023-06-01T20:42:14;22.20;83.90
19864;DHT22;10094;48.820;9.226;2023-06-01T20:49:01;22.00;82.40
19864;DHT22;10094;48.820;9.226;2023-06-01T20:55:43;21.90;82.60
19864;DHT22;10094;48.820;9.226;2023-06-01T21:02:32;21.80;82.70
19864;DHT22;10094;48.820;9.226;2023-06-01T21:09:15;21.80;83.80
19864;DHT22;10094;48.820;9.226;2023-06-01T21:15:58;21.70;85.10
19864;DHT22;10094;48.820;9.226;2023-06-01T21:22:41;21.60;89.80
19864;DHT22;10094;48.820;9.226;2023-06-01T21:29:25;21.40;88.40
19864;DHT22;10094;48.820;9.226;2023-06-01T21:36:08;21.20;93.90
19864;DHT22;10094;48.820;9.226;2023-06-01T21:42:51;21.00;93.70
19864;DHT22;10094;48.820;9.226;2023-06-01T21:49:34;20.30;97.50
19864;DHT22;10094;48.820;9.226;2023-06-01T21:56:16;20.30;97.40
19864;DHT22;10094;48.820;9.226;2023-06-01T22:02:59;19.80;99.50
19864;DHT22;10094;48.820;9.226;2023-06-01T22:09:42;19.50;99.90
19864;DHT22;10094;48.820;9.226;2023-06-01T22:16:24;19.50;99.90
19864;DHT22;10094;48.820;9.226;2023-06-01T22:23:07;19.70;97.90
19864;DHT22;10094;48.820;9.226;2023-06-01T22:29:51;19.60;97.30
19864;DHT22;10094;48.820;9.226;2023-06-01T22:36:35;19.60;96.60
19864;DHT22;10094;48.820;9.226;2023-06-01T22:43:19;19.30;97.40
19864;DHT22;10094;48.820;9.226;2023-06-01T22:50:01;19.40;96.80
19864;DHT22;10094;48.820;9.226;2023-06-01T22:56:46;19.40;96.50
19864;DHT22;10094;48.820;9.226;2023-06-01T23:03:28;19.20;97.70
19864;DHT22;10094;48.820;9.226;2023-06-01T23:10:11;19.00;98.60
19864;DHT22;10094;48.820;9.226;2023-06-01T23:16:53;18.80;99.60
19864;DHT22;10094;48.820;9.226;2023-06-01T23:23:43;18.70;98.80
19864;DHT22;10094;48.820;9.226;2023-06-01T23:30:28;18.50;99.90
19864;DHT22;10094;48.820;9.226;2023-06-01T23:37:10;18.40;99.90
19864;DHT22;10094;48.820;9.226;2023-06-01T23:43:55;18.40;99.90
19864;DHT22;10094;48.820;9.226;2023-06-01T23:50:37;18.20;99.70
19864;DHT22;10094;48.820;9.226;2023-06-01T23:57:20;18.00;97.60
